Time;durP1;ratioP1;P1;durP2;ratioP2;P2;SDS_P1;SDS_P2;PMS_P1;PMS_P2;Temp;Humidity;BMP_temperature;BMP_pressure;BME280_temperature;BME280_humidity;BME280_pressure;Samples;Min_cycle;Max_cycle;Signal;HPM_P1;HPM_P2
2022/03/05 00:00:31;;;;;;;9.15;5.20;;;-0.40;99.90;;;;;;5055157;28;20403;-67
2022/03/05 00:02:58;;;;;;;9.70;6.65;;;-0.40;99.90;;;;;;5057413;28;20048;-67
2022/03/05 00:05:23;;;;;;;7.82;5.75;;;-0.40;99.90;;;;;;5057317;28;20052;-67
2022/03/05 00:07:49;;;;;;;8.55;5.97;;;-0.50;99.90;;;;;;5072048;28;20096;-67
2022/03/05 00:10:15;;;;;;;7.22;5.15;;;-0.50;99.90;;;;;;5069275;28;20094;-67
2022/03/05 00:12:41;;;;;;;10.38;6.25;;;-0.50;99.90;;;;;;5070157;28;20048;-67
2022/03/05 00:15:07;;;;;;;8.32;6.07;;;-0.60;99.90;;;;;;5068822;28;20040;-67
2022/03/05 00:17:32;;;;;;;9.80;6.25;;;-0.50;99.90;;;;;;5069874;28;20072;-66
2022/03/05 00:19:58;;;;;;;8.25;5.00;;;-0.60;99.90;;;;;;5070583;28;20068;-67
2022/03/05 00:22:24;;;;;;;13.55;6.65;;;-0.60;99.90;;;;;;5063501;28;20553;-67
2022/03/05 00:24:50;;;;;;;7.55;5.55;;;-0.60;99.90;;;;;;5052774;28;20055;-67
2022/03/05 00:27:17;;;;;;;8.35;5.78;;;-0.60;99.90;;;;;;5050847;28;20052;-67
2022/03/05 00:29:42;;;;;;;11.57;6.25;;;-0.50;99.90;;;;;;5052516;28;20071;-67
2022/03/05 00:32:08;;;;;;;7.82;5.80;;;-0.60;99.90;;;;;;5052161;28;20095;-67
2022/03/05 00:34:33;;;;;;;9.07;5.68;;;-0.30;99.90;;;;;;5051599;28;20072;-67
2022/03/05 00:36:59;;;;;;;8.90;5.25;;;-0.60;99.90;;;;;;5052981;28;20779;-67
2022/03/05 00:39:25;;;;;;;8.80;6.47;;;-0.60;99.90;;;;;;5052439;28;20048;-67
2022/03/05 00:41:50;;;;;;;9.07;5.53;;;-0.70;99.90;;;;;;5051936;28;20044;-67
2022/03/05 00:44:16;;;;;;;10.50;6.03;;;-0.60;99.90;;;;;;5052137;28;20483;-67
2022/03/05 00:46:41;;;;;;;8.70;5.88;;;-0.70;99.90;;;;;;5052701;28;20040;-67
2022/03/05 00:49:08;;;;;;;9.23;6.43;;;-0.50;99.90;;;;;;5051364;28;20135;-67
2022/03/05 00:51:34;;;;;;;10.88;6.40;;;-0.70;99.90;;;;;;5052858;28;20056;-67
2022/03/05 00:54:00;;;;;;;9.48;5.95;;;-0.70;99.90;;;;;;5070419;28;20051;-67
2022/03/05 00:56:25;;;;;;;9.75;5.68;;;-0.70;99.90;;;;;;5051741;28;20060;-67
2022/03/05 00:58:51;;;;;;;9.90;6.50;;;-0.70;99.90;;;;;;5072673;28;20046;-67
2022/03/05 01:01:16;;;;;;;9.77;5.75;;;-0.70;99.90;;;;;;5080526;28;20525;-67
2022/03/05 01:03:43;;;;;;;9.27;5.72;;;-0.70;99.90;;;;;;5071685;28;20079;-67
2022/03/05 01:06:08;;;;;;;9.30;6.40;;;-0.70;99.90;;;;;;5068749;28;20056;-67
2022/03/05 01:08:34;;;;;;;9.07;5.50;;;-0.70;99.90;;;;;;5053102;28;20380;-67
2022/03/05 01:11:01;;;;;;;9.25;6.22;;;-0.70;99.90;;;;;;5073375;28;20105;-67
2022/03/05 01:13:26;;;;;;;8.82;5.43;;;-0.60;99.90;;;;;;5074675;28;20102;-67
2022/03/05 01:15:52;;;;;;;9.63;6.35;;;-0.80;99.90;;;;;;5056058;28;20049;-67
2022/03/05 01:18:18;;;;;;;11.52;5.82;;;-0.80;99.90;;;;;;5055200;28;20083;-67
2022/03/05 01:20:43;;;;;;;11.60;6.65;;;-0.80;99.90;;;;;;5056115;28;20572;-67
2022/03/05 01:23:09;;;;;;;12.75;6.72;;;-0.80;99.90;;;;;;5055362;28;20051;-67
2022/03/05 01:25:34;;;;;;;11.32;6.32;;;-0.80;99.90;;;;;;5055450;28;20390;-67
2022/03/05 01:28:00;;;;;;;12.15;6.63;;;-0.90;99.90;;;;;;5073872;28;20064;-67
2022/03/05 01:30:26;;;;;;;11.70;6.95;;;-0.90;99.90;;;;;;5055882;28;20398;-67
2022/03/05 01:32:51;;;;;;;12.82;6.00;;;-0.90;99.90;;;;;;5055334;28;20043;-67
2022/03/05 01:35:18;;;;;;;11.32;5.93;;;-0.90;99.90;;;;;;5056351;28;20399;-67
2022/03/05 01:37:43;;;;;;;9.45;6.03;;;-1.00;99.90;;;;;;5071532;28;20076;-67
2022/03/05 01:40:10;;;;;;;9.60;6.22;;;-0.90;99.90;;;;;;5064052;28;20506;-67
2022/03/05 01:42:35;;;;;;;10.32;6.40;;;-1.00;99.90;;;;;;5079089;28;20056;-67
2022/03/05 01:45:01;;;;;;;11.82;7.13;;;-1.00;99.90;;;;;;5054404;28;20372;-67
2022/03/05 01:47:27;;;;;;;9.70;6.47;;;-1.00;99.90;;;;;;5092567;28;20048;-67
2022/03/05 01:49:53;;;;;;;10.13;6.68;;;-1.00;99.90;;;;;;5093878;28;20048;-67
2022/03/05 01:52:19;;;;;;;10.52;6.18;;;-0.80;99.90;;;;;;5092674;28;20040;-67
2022/03/05 01:54:44;;;;;;;10.60;7.35;;;-1.10;99.90;;;;;;5074012;28;20090;-67
2022/03/05 01:57:11;;;;;;;11.27;7.30;;;-0.20;99.90;;;;;;5074986;28;20127;-67
2022/03/05 01:59:37;;;;;;;11.77;6.65;;;-1.10;99.90;;;;;;5074613;28;20048;-67
2022/03/05 02:02:03;;;;;;;12.32;7.05;;;-1.10;99.90;;;;;;5093354;28;20055;-67
2022/03/05 02:04:28;;;;;;;12.80;7.70;;;-1.10;99.90;;;;;;5075025;28;20044;-67
2022/03/05 02:06:54;;;;;;;14.10;7.55;;;-1.10;99.90;;;;;;5074307;28;20167;-67
2022/03/05 02:09:20;;;;;;;10.40;6.47;;;-1.10;99.90;;;;;;5074570;28;20048;-67
2022/03/05 02:11:46;;;;;;;10.63;6.82;;;-1.10;99.90;;;;;;5075092;28;20477;-67
2022/03/05 02:14:15;;;;;;;10.70;7.20;;;-1.20;99.90;;;;;;5092091;28;20051;-68
2022/03/05 02:16:40;;;;;;;12.10;6.57;;;-1.20;99.90;;;;;;5075138;28;20079;-67
2022/03/05 02:19:06;;;;;;;10.02;6.97;;;-1.10;99.90;;;;;;5074169;28;20101;-67
2022/03/05 02:21:36;;;;;;;11.07;6.55;;;-1.10;99.90;;;;;;5065016;28;20442;-67
2022/03/05 02:24:01;;;;;;;10.80;6.25;;;-1.10;99.90;;;;;;5061059;28;20372;-67
2022/03/05 02:26:27;;;;;;;10.60;7.68;;;-1.10;99.90;;;;;;5066736;28;20093;-67
2022/03/05 02:28:53;;;;;;;8.82;5.82;;;-1.00;99.90;;;;;;5071562;28;20080;-67
2022/03/05 02:31:19;;;;;;;9.32;6.35;;;-1.10;99.90;;;;;;5054284;28;20060;-67
2022/03/05 02:33:45;;;;;;;8.90;6.18;;;-1.10;99.90;;;;;;5056353;28;20110;-67
2022/03/05 02:36:10;;;;;;;11.85;7.40;;;-1.00;99.90;;;;;;5059159;28;20043;-67
2022/03/05 02:38:36;;;;;;;10.00;6.45;;;-1.00;99.90;;;;;;5054672;28;20048;-67
2022/03/05 02:41:02;;;;;;;9.88;6.93;;;-1.00;99.90;;;;;;5052948;28;20128;-68
2022/03/05 02:43:28;;;;;;;13.23;7.30;;;-1.10;99.90;;;;;;5054218;28;20502;-67
2022/03/05 02:45:54;;;;;;;9.88;6.72;;;-1.10;99.90;;;;;;5054396;28;20044;-67
2022/03/05 02:48:21;;;;;;;11.48;7.20;;;-1.20;99.90;;;;;;5053835;28;20084;-67
2022/03/05 02:50:48;;;;;;;8.48;5.70;;;-1.10;99.90;;;;;;5062020;28;20033;-67
2022/03/05 02:53:14;;;;;;;8.95;5.57;;;-1.20;99.90;;;;;;5071913;28;20071;-68
2022/03/05 02:55:41;;;;;;;10.70;6.47;;;-1.30;99.90;;;;;;5053392;28;20059;-68
2022/03/05 02:58:06;;;;;;;8.60;5.85;;;-1.30;99.90;;;;;;5053888;28;20743;-67
2022/03/05 03:00:32;;;;;;;9.80;6.40;;;-1.40;99.90;;;;;;5072271;28;20123;-67
2022/03/05 03:02:58;;;;;;;11.05;6.53;;;-1.40;99.90;;;;;;5053312;28;20145;-67
2022/03/05 03:05:24;;;;;;;8.77;5.57;;;-1.40;99.90;;;;;;5053712;28;20049;-67
2022/03/05 03:07:50;;;;;;;7.40;5.35;;;-1.40;99.90;;;;;;5054286;28;20080;-67
2022/03/05 03:10:16;;;;;;;9.30;6.20;;;-1.50;99.90;;;;;;5052909;28;20109;-68
2022/03/05 03:12:42;;;;;;;9.38;6.15;;;-1.50;99.90;;;;;;5053519;28;20147;-67
2022/03/05 03:15:10;;;;;;;8.48;5.72;;;-1.50;99.90;;;;;;5053681;28;20045;-67
2022/03/05 03:17:44;;;;;;;9.52;6.53;;;-1.50;99.90;;;;;;5053160;28;20110;-67
2022/03/05 03:20:14;;;;;;;8.52;5.75;;;-1.60;99.90;;;;;;5053333;28;20089;-67
2022/03/05 03:22:40;;;;;;;7.57;5.88;;;-1.60;99.90;;;;;;5053611;28;20052;-67
2022/03/05 03:25:06;;;;;;;11.85;6.88;;;-1.60;99.90;;;;;;5052442;28;20045;-67
2022/03/05 03:27:32;;;;;;;9.82;6.00;;;-1.60;99.90;;;;;;5053641;28;20105;-67
2022/03/05 03:29:58;;;;;;;13.52;7.55;;;-1.60;99.90;;;;;;5053594;28;20056;-67
2022/03/05 03:32:23;;;;;;;11.38;7.30;;;-1.70;99.90;;;;;;5051765;28;20059;-67
2022/03/05 03:34:49;;;;;;;10.15;6.38;;;-1.70;99.90;;;;;;5053747;28;20049;-67
2022/03/05 03:37:15;;;;;;;8.48;6.45;;;0.00;99.90;;;;;;5070364;28;20060;-67
2022/03/05 03:39:40;;;;;;;9.85;6.72;;;-1.70;99.90;;;;;;5053273;28;20045;-67
2022/03/05 03:42:06;;;;;;;8.48;6.70;;;-1.70;99.90;;;;;;5070927;28;20043;-67
2022/03/05 03:44:32;;;;;;;12.73;6.30;;;-1.80;99.90;;;;;;5070697;28;20115;-67
2022/03/05 03:46:58;;;;;;;10.15;7.00;;;-1.70;99.90;;;;;;5053198;28;20475;-67
2022/03/05 03:49:23;;;;;;;14.48;8.25;;;-1.80;99.90;;;;;;5071071;28;20191;-67
2022/03/05 03:51:49;;;;;;;12.00;7.28;;;-1.80;99.90;;;;;;5052647;28;20441;-69
2022/03/05 03:54:16;;;;;;;11.00;7.70;;;-1.80;99.90;;;;;;5052840;28;20546;-67
2022/03/05 03:56:41;;;;;;;11.23;7.03;;;-1.80;99.90;;;;;;5053265;28;20072;-67
2022/03/05 03:59:07;;;;;;;12.30;8.15;;;-1.90;99.90;;;;;;5052076;28;20471;-67
2022/03/05 04:01:33;;;;;;;11.75;7.53;;;-1.60;99.90;;;;;;5053267;28;20123;-67
2022/03/05 04:03:59;;;;;;;11.90;7.88;;;-1.90;99.90;;;;;;5052937;28;20048;-67
2022/03/05 04:06:25;;;;;;;12.45;7.30;;;-1.90;99.90;;;;;;5052429;28;20052;-67
2022/03/05 04:08:50;;;;;;;9.82;6.72;;;-1.90;99.90;;;;;;5052700;28;20098;-67
2022/03/05 04:11:18;;;;;;;10.30;6.65;;;-1.90;99.90;;;;;;5052991;28;20562;-67
2022/03/05 04:13:47;;;;;;;11.30;7.35;;;-2.00;99.90;;;;;;5052222;28;20049;-67
2022/03/05 04:16:13;;;;;;;9.20;6.50;;;-1.90;99.90;;;;;;5052948;28;20036;-67
2022/03/05 04:18:40;;;;;;;11.93;6.25;;;-1.90;99.90;;;;;;5053043;28;20135;-67
2022/03/05 04:21:09;;;;;;;10.88;7.00;;;-2.00;99.90;;;;;;5051714;28;20045;-67
2022/03/05 04:23:34;;;;;;;9.95;6.30;;;-2.00;99.90;;;;;;5052674;28;20055;-67
2022/03/05 04:26:01;;;;;;;12.27;7.47;;;-2.00;99.90;;;;;;5070740;28;20399;-67
2022/03/05 04:28:27;;;;;;;13.48;7.60;;;-2.00;99.90;;;;;;5051913;28;20048;-67
2022/03/05 04:30:53;;;;;;;8.77;6.22;;;-2.00;99.90;;;;;;5052703;28;20109;-67
2022/03/05 04:33:18;;;;;;;11.60;7.03;;;-2.00;99.90;;;;;;5052530;28;20574;-67
2022/03/05 04:35:44;;;;;;;10.32;7.10;;;-2.00;99.90;;;;;;5052197;28;20135;-67
2022/03/05 04:38:10;;;;;;;10.40;7.13;;;-2.10;99.90;;;;;;5052337;28;20036;-67
2022/03/05 04:40:36;;;;;;;16.35;6.53;;;-2.10;99.90;;;;;;5051963;28;20045;-67
2022/03/05 04:43:02;;;;;;;13.77;6.82;;;-2.10;99.90;;;;;;5053594;28;20076;-67
2022/03/05 04:45:28;;;;;;;11.80;7.18;;;-2.10;99.90;;;;;;5056792;28;20395;-67
2022/03/05 04:47:53;;;;;;;18.25;8.57;;;-2.10;99.90;;;;;;5056237;28;20048;-67
2022/03/05 04:50:20;;;;;;;10.48;6.90;;;-2.10;99.90;;;;;;5056175;28;20078;-67
2022/03/05 04:52:46;;;;;;;13.43;7.18;;;-2.20;99.90;;;;;;5056304;28;20127;-67
2022/03/05 04:55:12;;;;;;;13.77;7.20;;;-2.20;99.90;;;;;;5055570;28;20135;-67
2022/03/05 04:57:37;;;;;;;10.20;7.15;;;-2.10;99.90;;;;;;5056636;28;20048;-67
2022/03/05 05:00:06;;;;;;;9.82;7.07;;;-2.10;99.90;;;;;;5056093;28;20060;-67
2022/03/05 05:02:31;;;;;;;10.43;6.65;;;-2.10;99.90;;;;;;5060278;28;20044;-67
2022/03/05 05:04:57;;;;;;;8.43;5.63;;;-2.00;99.90;;;;;;5076004;28;20071;-67
2022/03/05 05:07:23;;;;;;;9.77;6.70;;;-2.20;99.90;;;;;;5072849;28;20048;-67
2022/03/05 05:09:48;;;;;;;10.77;7.03;;;-2.20;99.90;;;;;;5055966;28;20533;-67
2022/03/05 05:12:14;;;;;;;10.68;7.45;;;-2.20;99.90;;;;;;5073852;28;20048;-67
2022/03/05 05:14:40;;;;;;;9.75;6.53;;;-2.10;99.90;;;;;;5074315;28;20083;-68
2022/03/05 05:17:06;;;;;;;10.10;6.03;;;-2.10;99.90;;;;;;5055029;28;20084;-68
2022/03/05 05:19:31;;;;;;;10.95;6.50;;;-2.10;99.90;;;;;;5057466;28;20440;-67
2022/03/05 05:22:00;;;;;;;12.35;6.53;;;-2.10;99.90;;;;;;5071082;28;20113;-67
2022/03/05 05:24:29;;;;;;;9.35;6.07;;;-2.10;99.90;;;;;;5069391;28;20090;-68
2022/03/05 05:26:56;;;;;;;9.88;5.88;;;-2.10;99.90;;;;;;5076082;28;20070;-68
2022/03/05 05:29:22;;;;;;;10.73;6.60;;;-2.10;99.90;;;;;;5057166;28;20060;-67
2022/03/05 05:31:48;;;;;;;9.40;5.65;;;-2.10;99.90;;;;;;5074494;28;20044;-68
2022/03/05 05:34:14;;;;;;;9.18;5.72;;;-2.10;99.90;;;;;;5068720;28;20048;-68
2022/03/05 05:36:40;;;;;;;12.20;6.60;;;-2.10;99.90;;;;;;5056083;28;20044;-68
2022/03/05 05:39:07;;;;;;;8.63;5.50;;;-2.10;99.90;;;;;;5071248;28;20079;-68
2022/03/05 05:41:33;;;;;;;10.52;5.57;;;-2.10;99.90;;;;;;5072190;28;20170;-68
2022/03/05 05:43:59;;;;;;;7.50;5.32;;;-1.90;99.90;;;;;;5054632;28;20082;-68
2022/03/05 05:46:24;;;;;;;8.57;5.72;;;-2.10;99.90;;;;;;5073285;28;20052;-68
2022/03/05 05:48:50;;;;;;;8.13;5.88;;;-2.20;99.90;;;;;;5070461;28;20086;-68
2022/03/05 05:51:16;;;;;;;9.27;6.60;;;-2.10;99.90;;;;;;5074542;28;20181;-68
2022/03/05 05:53:41;;;;;;;11.43;5.90;;;-2.10;99.90;;;;;;5075392;28;20040;-68
2022/03/05 05:56:08;;;;;;;9.00;5.95;;;-2.20;99.90;;;;;;5074566;28;20050;-68
2022/03/05 05:58:33;;;;;;;9.40;6.03;;;-2.20;99.90;;;;;;5074568;28;20040;-68
2022/03/05 06:00:59;;;;;;;7.93;6.03;;;-2.20;99.90;;;;;;5093504;28;20398;-68
2022/03/05 06:03:25;;;;;;;10.45;6.47;;;-2.20;99.90;;;;;;5058327;28;20056;-68
2022/03/05 06:05:51;;;;;;;9.57;6.25;;;-2.10;99.90;;;;;;5054439;28;20483;-68
2022/03/05 06:08:16;;;;;;;10.98;6.65;;;-2.20;99.90;;;;;;5054802;28;20056;-68
2022/03/05 06:10:42;;;;;;;11.60;6.63;;;-2.20;99.90;;;;;;5056015;28;20426;-68
2022/03/05 06:13:07;;;;;;;10.32;6.18;;;-2.20;99.90;;;;;;5067849;28;20049;-68
2022/03/05 06:15:33;;;;;;;10.25;6.03;;;-2.20;99.90;;;;;;5071645;28;20048;-68
2022/03/05 06:17:58;;;;;;;12.15;6.53;;;-2.20;99.90;;;;;;5055067;28;20052;-68
2022/03/05 06:20:24;;;;;;;8.82;6.07;;;-2.20;99.90;;;;;;5056970;28;20075;-68
2022/03/05 06:22:50;;;;;;;9.15;6.93;;;-2.20;99.90;;;;;;5075033;28;20459;-68
2022/03/05 06:25:19;;;;;;;9.90;6.55;;;-2.20;99.90;;;;;;5074565;28;20136;-68
2022/03/05 06:27:44;;;;;;;10.80;6.30;;;-2.20;99.90;;;;;;5073990;28;20417;-68
2022/03/05 06:30:11;;;;;;;11.20;6.10;;;-2.20;99.90;;;;;;5092622;28;20040;-68
2022/03/05 06:32:40;;;;;;;12.65;6.05;;;-2.20;99.90;;;;;;5074986;28;20594;-68
2022/03/05 06:35:06;;;;;;;11.02;6.22;;;-2.20;99.90;;;;;;5073625;28;20491;-68
2022/03/05 06:37:32;;;;;;;15.13;6.70;;;-2.10;99.90;;;;;;5074737;28;20043;-68
2022/03/05 06:39:59;;;;;;;12.40;6.93;;;-2.10;99.90;;;;;;5065745;28;20078;-68
2022/03/05 06:42:24;;;;;;;10.07;6.63;;;-2.10;99.90;;;;;;5054250;28;20056;-68
2022/03/05 06:44:50;;;;;;;9.35;5.55;;;-2.10;99.90;;;;;;5054334;28;20050;-68
2022/03/05 06:47:16;;;;;;;9.00;6.43;;;-2.10;99.90;;;;;;5053563;28;20080;-68
2022/03/05 06:49:42;;;;;;;10.63;7.13;;;-2.10;99.90;;;;;;5065293;28;20074;-68
2022/03/05 06:52:10;;;;;;;12.40;6.85;;;-2.00;99.90;;;;;;5053829;28;20550;-68
2022/03/05 06:54:36;;;;;;;9.52;6.68;;;-1.70;99.90;;;;;;5053820;28;20044;-68
2022/03/05 06:57:01;;;;;;;10.57;6.03;;;-2.00;99.90;;;;;;5053940;28;20075;-68
2022/03/05 06:59:27;;;;;;;11.50;6.15;;;-1.90;99.90;;;;;;5071996;28;20542;-68
2022/03/05 07:01:53;;;;;;;9.38;6.28;;;-1.90;99.90;;;;;;5053362;28;20135;-68
2022/03/05 07:04:18;;;;;;;8.68;6.25;;;-1.90;99.90;;;;;;5053757;28;20135;-68
2022/03/05 07:06:44;;;;;;;11.27;6.78;;;-1.80;99.90;;;;;;5065627;28;20058;-68
2022/03/05 07:09:10;;;;;;;10.68;6.35;;;-1.70;99.90;;;;;;5058653;28;20079;-69
2022/03/05 07:11:35;;;;;;;8.77;5.95;;;-1.70;99.90;;;;;;5064131;28;20040;-68
2022/03/05 07:14:01;;;;;;;9.60;6.38;;;-1.70;99.90;;;;;;5064894;28;20043;-68
2022/03/05 07:16:26;;;;;;;13.55;7.10;;;0.60;99.90;;;;;;5069689;28;20067;-68
2022/03/05 07:18:52;;;;;;;9.50;6.35;;;-1.50;99.90;;;;;;5053792;28;20056;-68
2022/03/05 07:21:18;;;;;;;12.82;7.25;;;-1.50;99.90;;;;;;5053655;28;20109;-68
2022/03/05 07:23:43;;;;;;;10.65;7.45;;;-1.40;99.90;;;;;;5059837;28;20051;-68
2022/03/05 07:26:09;;;;;;;11.07;6.82;;;-1.30;99.90;;;;;;5065030;28;20055;-68
2022/03/05 07:28:34;;;;;;;9.43;6.85;;;-1.20;99.90;;;;;;5067704;28;20060;-68
2022/03/05 07:31:00;;;;;;;10.55;7.05;;;-1.10;99.90;;;;;;5067809;28;20088;-68
2022/03/05 07:33:26;;;;;;;12.43;6.72;;;-1.00;99.90;;;;;;5058809;28;20049;-68
2022/03/05 07:35:52;;;;;;;10.52;6.63;;;-0.90;99.90;;;;;;5062194;28;20091;-68
2022/03/05 07:38:18;;;;;;;10.52;6.70;;;-0.90;99.90;;;;;;5072735;28;20055;-68
2022/03/05 07:40:43;;;;;;;10.52;6.47;;;-0.80;99.90;;;;;;5073243;28;20041;-68
2022/03/05 07:43:09;;;;;;;10.02;7.25;;;-0.70;99.90;;;;;;5073102;28;20403;-68
2022/03/05 07:45:35;;;;;;;7.85;5.72;;;-0.50;99.90;;;;;;5090811;28;20097;-71
2022/03/05 07:48:00;;;;;;;9.10;6.47;;;-0.50;99.90;;;;;;5064814;28;20067;-68
2022/03/05 07:50:26;;;;;;;9.90;6.40;;;-0.40;99.90;;;;;;5052744;28;20456;-68
2022/03/05 07:52:58;;;;;;;12.07;7.22;;;-0.20;99.90;;;;;;5052944;28;20055;-69
2022/03/05 07:55:23;;;;;;;12.20;7.20;;;-0.10;99.90;;;;;;5052833;28;20041;-68
2022/03/05 07:57:49;;;;;;;13.43;7.25;;;0.00;99.90;;;;;;5052185;28;20105;-68
2022/03/05 08:00:15;;;;;;;10.68;7.25;;;0.20;99.90;;;;;;5074032;28;20462;-68
2022/03/05 08:02:41;;;;;;;9.88;6.35;;;0.20;99.90;;;;;;5057138;28;20062;-68
2022/03/05 08:05:07;;;;;;;10.23;6.82;;;0.30;99.90;;;;;;5054416;28;20173;-69
2022/03/05 08:07:32;;;;;;;10.18;6.43;;;0.40;99.90;;;;;;5068950;28;20514;-68
2022/03/05 08:09:58;;;;;;;10.65;6.03;;;0.50;99.90;;;;;;5052271;28;20040;-68
2022/03/05 08:12:24;;;;;;;10.88;7.57;;;0.60;99.90;;;;;;5056308;28;20052;-68
2022/03/05 08:14:49;;;;;;;12.80;7.13;;;0.60;99.90;;;;;;5070371;28;20831;-68
2022/03/05 08:17:15;;;;;;;10.73;6.28;;;0.70;99.90;;;;;;5064229;28;20059;-68
2022/03/05 08:19:41;;;;;;;13.98;8.32;;;0.90;99.90;;;;;;5063055;28;20044;-69
2022/03/05 08:22:07;;;;;;;12.35;7.70;;;0.90;99.90;;;;;;5051553;28;20041;-68
2022/03/05 08:24:32;;;;;;;11.40;6.75;;;1.00;99.90;;;;;;5051992;28;20061;-68
2022/03/05 08:26:58;;;;;;;9.35;6.47;;;1.10;99.90;;;;;;5051495;28;20758;-68
2022/03/05 08:29:24;;;;;;;9.18;5.88;;;1.20;99.90;;;;;;5052417;28;20567;-68
2022/03/05 08:31:49;;;;;;;10.60;7.65;;;1.30;99.90;;;;;;5052201;28;20044;-68
2022/03/05 08:34:15;;;;;;;14.50;9.20;;;1.50;99.90;;;;;;5051557;28;20066;-68
2022/03/05 08:36:41;;;;;;;17.60;8.93;;;1.50;99.90;;;;;;5052114;28;20064;-68
2022/03/05 08:39:06;;;;;;;13.73;8.20;;;1.70;99.90;;;;;;5060412;28;20048;-68
2022/03/05 08:41:32;;;;;;;13.63;8.40;;;1.80;99.90;;;;;;5090160;28;20036;-68
2022/03/05 08:43:57;;;;;;;10.15;7.15;;;1.90;99.90;;;;;;5072654;28;20492;-66
2022/03/05 08:46:26;;;;;;;14.35;8.27;;;2.00;99.90;;;;;;5087108;28;20070;-68
2022/03/05 08:48:54;;;;;;;12.13;7.72;;;2.10;99.90;;;;;;5054444;28;20055;-68
2022/03/05 08:51:20;;;;;;;10.52;7.05;;;2.20;99.90;;;;;;5055083;28;20121;-68
2022/03/05 08:53:45;;;;;;;14.73;8.25;;;2.20;99.90;;;;;;5073324;28;20781;-68
2022/03/05 08:56:11;;;;;;;15.30;8.88;;;2.30;99.90;;;;;;5051640;28;20049;-66
2022/03/05 08:58:37;;;;;;;12.73;8.32;;;2.40;99.90;;;;;;5057141;28;20040;-67
2022/03/05 09:01:03;;;;;;;13.38;7.95;;;2.40;99.90;;;;;;5060280;28;20089;-68
2022/03/05 09:03:28;;;;;;;14.48;8.32;;;2.40;99.90;;;;;;5051312;28;20053;-67
2022/03/05 09:05:54;;;;;;;12.85;7.63;;;2.50;99.90;;;;;;5051874;28;20041;-81
2022/03/05 09:08:20;;;;;;;14.95;7.93;;;2.60;99.90;;;;;;5053621;28;20048;-68
2022/03/05 09:10:46;;;;;;;12.65;8.30;;;2.60;99.90;;;;;;5059812;28;20126;-72
2022/03/05 09:13:12;;;;;;;11.68;7.78;;;2.70;99.90;;;;;;5068981;28;20040;-72
2022/03/05 09:15:38;;;;;;;12.20;7.45;;;2.80;99.90;;;;;;5065375;28;20505;-73
2022/03/05 09:18:04;;;;;;;14.25;8.48;;;2.50;99.90;;;;;;5058088;28;20443;-72
2022/03/05 09:20:31;;;;;;;14.43;8.77;;;2.90;99.90;;;;;;5068930;28;20135;-72
2022/03/05 09:22:58;;;;;;;13.60;8.07;;;2.90;99.90;;;;;;5051708;28;20094;-72
2022/03/05 09:25:24;;;;;;;13.10;6.55;;;2.90;99.90;;;;;;5052088;28;20672;-70
2022/03/05 09:27:50;;;;;;;12.02;8.88;;;3.00;99.90;;;;;;5046327;28;20066;-71
2022/03/05 09:30:15;;;;;;;11.65;8.07;;;3.10;99.90;;;;;;5048622;28;20045;-71
2022/03/05 09:32:42;;;;;;;14.25;9.25;;;3.10;99.90;;;;;;5052759;28;20045;-72
2022/03/05 09:35:07;;;;;;;11.90;7.25;;;3.10;99.90;;;;;;5047724;28;20444;-71
2022/03/05 09:37:34;;;;;;;12.80;8.75;;;3.20;99.90;;;;;;5036212;28;20191;-71
2022/03/05 09:40:01;;;;;;;13.07;8.27;;;3.20;99.90;;;;;;5035287;28;20071;-71
2022/03/05 09:42:26;;;;;;;16.33;8.75;;;3.30;99.90;;;;;;5042041;28;20129;-71
2022/03/05 09:44:52;;;;;;;14.35;8.88;;;3.40;99.90;;;;;;5043927;28;20479;-72
2022/03/05 09:47:20;;;;;;;14.45;9.10;;;3.50;99.90;;;;;;5069191;28;20048;-71
2022/03/05 09:49:47;;;;;;;13.00;8.32;;;3.60;99.90;;;;;;5037596;28;20152;-72
2022/03/05 09:52:12;;;;;;;12.98;8.90;;;3.70;99.90;;;;;;5038092;28;20127;-73
2022/03/05 09:54:38;;;;;;;13.50;7.93;;;3.80;99.90;;;;;;5043851;28;20166;-73
2022/03/05 09:57:11;;;;;;;16.52;10.02;;;3.80;99.90;;;;;;5049681;28;20450;-72
2022/03/05 09:59:37;;;;;;;15.07;8.82;;;3.90;99.90;;;;;;5072320;28;20052;-72
2022/03/05 10:02:05;;;;;;;18.58;8.55;;;3.90;99.90;;;;;;5054797;28;20044;-72
2022/03/05 10:04:31;;;;;;;14.93;9.73;;;3.90;99.90;;;;;;5054806;28;20457;-72
2022/03/05 10:07:29;;;;;;;16.85;9.95;;;4.00;99.90;;;;;;5041499;28;20072;-73
2022/03/05 10:10:08;;;;;;;14.75;8.23;;;4.10;99.90;;;;;;4989336;28;20460;-72
2022/03/05 10:12:34;;;;;;;17.85;9.80;;;4.10;99.90;;;;;;5036712;28;20132;-72
2022/03/05 10:15:12;;;;;;;16.48;9.80;;;4.20;99.90;;;;;;5042060;28;20579;-72
2022/03/05 10:17:57;;;;;;;15.43;9.15;;;4.20;99.90;;;;;;5039110;28;20383;-72
2022/03/05 10:20:28;;;;;;;14.77;9.60;;;4.20;99.90;;;;;;5046334;28;20044;-72
2022/03/05 10:22:55;;;;;;;14.82;10.00;;;4.30;99.90;;;;;;5043902;28;20064;-72
2022/03/05 10:25:42;;;;;;;15.20;9.27;;;4.40;99.90;;;;;;5039868;28;20045;-73
2022/03/05 10:28:11;;;;;;;17.02;9.45;;;4.40;99.90;;;;;;5041984;28;20053;-73
2022/03/05 10:31:04;;;;;;;14.98;9.77;;;4.50;99.90;;;;;;5053541;28;20044;-73
2022/03/05 10:33:35;;;;;;;16.92;10.40;;;4.50;99.90;;;;;;5071684;28;20052;-74
2022/03/05 10:36:06;;;;;;;16.65;10.88;;;4.50;99.90;;;;;;5053863;28;20444;-73
2022/03/05 10:39:02;;;;;;;15.85;10.32;;;4.50;99.90;;;;;;5054585;28;20053;-74
2022/03/05 10:41:36;;;;;;;13.65;8.95;;;4.60;99.90;;;;;;5071373;28;20510;-74
2022/03/05 10:44:11;;;;;;;17.75;9.82;;;4.60;99.90;;;;;;5054263;28;20483;-73
2022/03/05 10:46:42;;;;;;;17.25;10.15;;;4.60;99.90;;;;;;5053984;28;20066;-74
2022/03/05 10:49:14;;;;;;;17.23;10.13;;;4.80;99.90;;;;;;5072245;28;20048;-74
2022/03/05 10:51:39;;;;;;;15.23;11.25;;;4.80;99.90;;;;;;5054436;28;20040;-74
2022/03/05 10:54:05;;;;;;;15.88;9.90;;;4.90;99.90;;;;;;5053640;28;20052;-74
2022/03/05 10:56:33;;;;;;;18.55;11.07;;;4.90;99.90;;;;;;5054555;28;20509;-73
2022/03/05 10:59:08;;;;;;;16.92;9.70;;;5.00;99.90;;;;;;5054335;28;20376;-73
2022/03/05 11:01:37;;;;;;;15.02;9.93;;;5.00;99.90;;;;;;5053621;28;20040;-76
2022/03/05 11:04:03;;;;;;;13.82;9.52;;;5.00;99.90;;;;;;5059417;28;20036;-74
2022/03/05 11:06:29;;;;;;;15.85;9.45;;;5.00;99.90;;;;;;5057805;28;20387;-74
2022/03/05 11:08:56;;;;;;;18.65;10.02;;;5.00;99.90;;;;;;5057677;28;20063;-70
2022/03/05 11:11:22;;;;;;;16.08;10.45;;;5.00;99.90;;;;;;5083148;28;20044;-71
2022/03/05 11:13:48;;;;;;;17.08;10.15;;;4.90;99.90;;;;;;5065117;28;20048;-72
2022/03/05 11:16:14;;;;;;;15.32;10.05;;;4.90;99.90;;;;;;5090494;28;20052;-69
2022/03/05 11:18:40;;;;;;;15.40;10.68;;;4.90;99.90;;;;;;5070871;28;20040;-70
2022/03/05 11:21:09;;;;;;;17.20;10.98;;;4.90;99.90;;;;;;5064352;28;20059;-71
2022/03/05 11:23:37;;;;;;;20.15;10.63;;;4.90;99.90;;;;;;5064870;28;20060;-70
2022/03/05 11:26:05;;;;;;;14.60;9.82;;;4.90;99.90;;;;;;5074037;28;20044;-72
2022/03/05 11:28:38;;;;;;;21.67;10.27;;;5.00;99.90;;;;;;5089906;28;20055;-72
2022/03/05 11:31:15;;;;;;;14.90;9.73;;;4.90;99.90;;;;;;5070934;28;20478;-71
2022/03/05 11:33:43;;;;;;;16.42;9.35;;;4.90;99.90;;;;;;5054355;28;20083;-72
2022/03/05 11:36:31;;;;;;;17.60;10.00;;;5.00;99.90;;;;;;5065753;28;20052;-69
2022/03/05 11:39:16;;;;;;;21.15;11.40;;;5.10;99.90;;;;;;5062435;28;20101;-69
2022/03/05 11:42:03;;;;;;;16.75;9.30;;;5.20;99.90;;;;;;5054203;28;20040;-70
2022/03/05 11:44:44;;;;;;;16.30;9.10;;;5.20;99.90;;;;;;5062601;28;20040;-69
2022/03/05 11:47:19;;;;;;;17.20;9.80;;;5.20;99.90;;;;;;5065580;28;20037;-69
2022/03/05 11:49:59;;;;;;;15.25;10.38;;;5.20;99.90;;;;;;5053717;28;20067;-69
2022/03/05 11:52:43;;;;;;;17.85;9.88;;;5.30;99.90;;;;;;5065121;28;20116;-69
2022/03/05 11:55:12;;;;;;;17.27;10.20;;;5.40;99.90;;;;;;5073191;28;20048;-70
2022/03/05 11:57:38;;;;;;;19.50;12.43;;;5.40;99.90;;;;;;5072993;28;20498;-72
2022/03/05 12:00:05;;;;;;;25.33;14.13;;;5.40;99.90;;;;;;5070376;28;20048;-69
2022/03/05 12:02:42;;;;;;;27.73;13.57;;;5.40;99.90;;;;;;5053534;28;20091;-69
2022/03/05 12:05:08;;;;;;;24.17;15.15;;;5.50;99.90;;;;;;5052739;28;20048;-69
2022/03/05 12:07:40;;;;;;;22.83;13.07;;;5.50;99.90;;;;;;5053514;28;20036;-70
2022/03/05 12:10:15;;;;;;;24.90;15.15;;;5.50;99.90;;;;;;5053362;28;20040;-70
2022/03/05 12:12:54;;;;;;;25.73;15.32;;;5.40;99.90;;;;;;5053289;28;20045;-69
2022/03/05 12:15:26;;;;;;;24.10;14.35;;;5.40;99.90;;;;;;5066423;28;20056;-69
2022/03/05 12:17:53;;;;;;;;;;;5.40;99.90;;;;;;5071852;28;20143;-71
2022/03/05 12:20:22;;;;;;;18.20;10.60;;;5.50;99.90;;;;;;5069884;28;19927;-69
2022/03/05 12:23:04;;;;;;;21.67;12.57;;;5.60;99.90;;;;;;5065981;28;20104;-68
2022/03/05 12:25:35;;;;;;;20.17;11.63;;;5.60;99.90;;;;;;5069406;28;20044;-69
2022/03/05 12:28:03;;;;;;;17.63;10.60;;;5.60;99.90;;;;;;5068424;28;20052;-69
2022/03/05 12:30:37;;;;;;;16.65;10.93;;;5.70;99.90;;;;;;5091694;28;20058;-68
2022/03/05 12:33:05;;;;;;;20.75;13.63;;;5.70;99.90;;;;;;5066339;28;20051;-68
2022/03/05 12:35:31;;;;;;;20.67;12.95;;;5.70;99.90;;;;;;5057935;28;20106;-69
2022/03/05 12:37:57;;;;;;;19.05;11.50;;;5.70;99.90;;;;;;5066422;28;20039;-71
2022/03/05 12:40:25;;;;;;;18.08;12.10;;;5.80;99.90;;;;;;5070228;28;20036;-72
2022/03/05 12:42:52;;;;;;;14.88;10.32;;;5.90;99.90;;;;;;5061597;28;20483;-72